Time;durP1;ratioP1;P1;durP2;ratioP2;P2;SDS_P1;SDS_P2;PMS_P1;PMS_P2;Temp;Humidity;BMP_temperature;BMP_pressure;BME280_temperature;BME280_humidity;BME280_pressure;Samples;Min_cycle;Max_cycle;Signal;HPM_P1;HPM_P2
2020/12/07 00:01:09;;;;;;;10.15;6.07;;;;;;;;;;5056639;28;20028;-80
2020/12/07 00:03:54;;;;;;;9.70;6.72;;;;;;;;;;5062214;28;20090;-82
2020/12/07 00:06:40;;;;;;;11.77;7.97;;;;;;;;;;5058124;28;20095;-81
2020/12/07 00:09:25;;;;;;;8.75;6.07;;;;;;;;;;5059391;28;20036;-81
2020/12/07 00:12:10;;;;;;;11.80;7.57;;;;;;;;;;5065156;28;20024;-81
2020/12/07 00:14:56;;;;;;;8.95;6.15;;;;;;;;;;5063568;28;20021;-81
2020/12/07 00:17:41;;;;;;;12.48;6.07;;;;;;;;;;5051549;28;20183;-80
2020/12/07 00:20:27;;;;;;;9.75;6.97;;;;;;;;;;5062526;28;20832;-80
2020/12/07 00:23:12;;;;;;;10.63;5.30;;;;;;;;;;5056776;28;20027;-79
2020/12/07 00:25:57;;;;;;;10.45;5.72;;;;;;;;;;5052700;28;20029;-79
2020/12/07 00:28:42;;;;;;;8.02;5.07;;;;;;;;;;5060954;28;20016;-79
2020/12/07 00:31:28;;;;;;;8.05;5.22;;;;;;;;;;5056525;28;20083;-81
2020/12/07 00:34:14;;;;;;;9.95;6.10;;;;;;;;;;5055296;28;20106;-81
2020/12/07 00:36:59;;;;;;;8.98;5.57;;;;;;;;;;5056102;28;20111;-81
2020/12/07 00:39:44;;;;;;;7.68;4.88;;;;;;;;;;5056220;28;20021;-81
2020/12/07 00:42:30;;;;;;;6.57;4.47;;;;;;;;;;5056810;28;20025;-81
2020/12/07 00:45:15;;;;;;;10.40;6.78;;;;;;;;;;5045874;28;20078;-80
2020/12/07 00:48:00;;;;;;;10.43;6.50;;;;;;;;;;5055720;28;20028;-80
2020/12/07 00:50:45;;;;;;;9.52;6.50;;;;;;;;;;5057876;28;20020;-80
2020/12/07 00:53:31;;;;;;;10.45;5.63;;;;;;;;;;5056820;28;20029;-80
2020/12/07 00:56:16;;;;;;;9.00;5.60;;;;;;;;;;5056691;28;20027;-80
2020/12/07 00:59:01;;;;;;;9.77;5.93;;;;;;;;;;5060701;28;20032;-80
2020/12/07 01:01:47;;;;;;;8.57;5.30;;;;;;;;;;5057227;28;20375;-79
2020/12/07 01:04:32;;;;;;;5.55;3.80;;;;;;;;;;5055132;28;20021;-79
2020/12/07 01:07:17;;;;;;;8.10;5.15;;;;;;;;;;5054056;28;20027;-79
2020/12/07 01:10:03;;;;;;;9.15;4.10;;;;;;;;;;5057137;28;20082;-81
2020/12/07 01:12:48;;;;;;;11.23;5.90;;;;;;;;;;5060948;28;20059;-81
2020/12/07 01:15:34;;;;;;;8.90;5.53;;;;;;;;;;5059399;28;20171;-81
2020/12/07 01:18:19;;;;;;;6.25;3.97;;;;;;;;;;5055600;28;20042;-80
2020/12/07 01:21:04;;;;;;;8.68;5.57;;;;;;;;;;5052739;28;20029;-81
2020/12/07 01:23:49;;;;;;;8.43;5.20;;;;;;;;;;5057444;28;20021;-81
2020/12/07 01:26:35;;;;;;;6.93;4.75;;;;;;;;;;5061551;28;20462;-81
2020/12/07 01:29:20;;;;;;;7.47;4.38;;;;;;;;;;5056339;28;20111;-81
2020/12/07 01:32:06;;;;;;;8.65;5.63;;;;;;;;;;5052444;28;20750;-82
2020/12/07 01:34:51;;;;;;;8.65;4.13;;;;;;;;;;5038992;28;20376;-82
2020/12/07 01:37:37;;;;;;;10.82;4.93;;;;;;;;;;5038842;28;20069;-81
2020/12/07 01:40:22;;;;;;;8.00;4.75;;;;;;;;;;5043829;28;20028;-81
2020/12/07 01:43:07;;;;;;;7.80;4.30;;;;;;;;;;5040214;28;20024;-81
2020/12/07 01:45:53;;;;;;;7.93;4.80;;;;;;;;;;5041646;28;20096;-81
2020/12/07 01:48:38;;;;;;;10.68;5.22;;;;;;;;;;5036765;28;20547;-81
2020/12/07 01:51:23;;;;;;;6.93;4.15;;;;;;;;;;5045641;28;20020;-81
2020/12/07 01:54:08;;;;;;;10.77;5.10;;;;;;;;;;5040031;28;20487;-81
2020/12/07 01:56:54;;;;;;;8.77;4.70;;;;;;;;;;5040263;28;20028;-80
2020/12/07 01:59:39;;;;;;;9.98;4.80;;;;;;;;;;5045001;28;20024;-79
2020/12/07 02:02:24;;;;;;;8.88;4.22;;;;;;;;;;5043024;28;20391;-79
2020/12/07 02:05:10;;;;;;;7.50;4.85;;;;;;;;;;5042431;28;20096;-79
2020/12/07 02:08:11;;;;;;;8.43;4.68;;;;;;;;;;5044130;28;20033;-79
2020/12/07 02:10:56;;;;;;;6.90;4.20;;;;;;;;;;5045548;28;20557;-81
2020/12/07 02:13:42;;;;;;;8.60;4.80;;;;;;;;;;5044241;28;20020;-79
2020/12/07 02:16:27;;;;;;;5.25;3.70;;;;;;;;;;5043954;28;20079;-80
2020/12/07 02:19:12;;;;;;;5.97;4.03;;;;;;;;;;5043872;28;20024;-81
2020/12/07 02:21:58;;;;;;;6.78;4.47;;;;;;;;;;5037212;28;20051;-79
2020/12/07 02:24:43;;;;;;;7.85;4.72;;;;;;;;;;5039424;28;20032;-79
2020/12/07 02:27:28;;;;;;;7.38;3.97;;;;;;;;;;5046672;28;20025;-79
2020/12/07 02:30:18;;;;;;;6.88;4.65;;;;;;;;;;5040585;28;20020;-81
2020/12/07 02:33:03;;;;;;;7.32;4.68;;;;;;;;;;5048971;28;20112;-80
2020/12/07 02:35:48;;;;;;;5.82;4.30;;;;;;;;;;5062515;28;20028;-82
2020/12/07 02:38:33;;;;;;;6.90;4.80;;;;;;;;;;5061790;28;20035;-82
2020/12/07 02:41:19;;;;;;;7.18;4.72;;;;;;;;;;5066827;28;20027;-82
2020/12/07 02:44:04;;;;;;;7.18;5.00;;;;;;;;;;5062660;28;20490;-80
2020/12/07 02:46:49;;;;;;;6.68;4.65;;;;;;;;;;5056982;28;20477;-80
2020/12/07 02:49:34;;;;;;;6.55;4.22;;;;;;;;;;5058043;28;20023;-81
2020/12/07 02:52:19;;;;;;;9.48;5.28;;;;;;;;;;5053915;28;20020;-81
2020/12/07 02:55:08;;;;;;;8.00;5.00;;;;;;;;;;5066004;28;20091;-80
2020/12/07 02:57:53;;;;;;;4.72;3.13;;;;;;;;;;5058282;28;20443;-80
2020/12/07 03:00:39;;;;;;;8.23;5.00;;;;;;;;;;5062125;28;20036;-80
2020/12/07 03:03:24;;;;;;;5.85;4.43;;;;;;;;;;5057953;28;20082;-80
2020/12/07 03:06:09;;;;;;;6.80;4.28;;;;;;;;;;5066356;28;20106;-81
2020/12/07 03:08:54;;;;;;;8.32;4.75;;;;;;;;;;5055982;28;20082;-80
2020/12/07 03:11:40;;;;;;;6.93;4.10;;;;;;;;;;5060139;28;20078;-80
2020/12/07 03:14:25;;;;;;;9.57;4.63;;;;;;;;;;5065159;28;20024;-80
2020/12/07 03:17:10;;;;;;;5.75;4.20;;;;;;;;;;5055970;28;20024;-80
2020/12/07 03:19:56;;;;;;;5.38;3.22;;;;;;;;;;5063319;28;20024;-80
2020/12/07 03:22:41;;;;;;;6.03;4.07;;;;;;;;;;5065206;28;20016;-80
2020/12/07 03:25:26;;;;;;;6.07;4.07;;;;;;;;;;5057771;28;20091;-80
2020/12/07 03:28:11;;;;;;;6.40;3.72;;;;;;;;;;5060064;28;20031;-80
2020/12/07 03:30:57;;;;;;;5.82;4.07;;;;;;;;;;5065908;28;20024;-81
2020/12/07 03:33:42;;;;;;;6.55;4.50;;;;;;;;;;5057410;28;20080;-81
2020/12/07 03:36:27;;;;;;;6.85;4.10;;;;;;;;;;5051296;28;20025;-81
2020/12/07 03:39:12;;;;;;;4.85;3.50;;;;;;;;;;5055412;28;20112;-80
2020/12/07 03:41:57;;;;;;;5.72;3.92;;;;;;;;;;5055624;28;20013;-79
2020/12/07 03:44:43;;;;;;;10.13;3.90;;;;;;;;;;5049989;28;20348;-81
2020/12/07 03:47:28;;;;;;;3.65;2.50;;;;;;;;;;5057650;28;20375;-80
2020/12/07 03:50:13;;;;;;;5.28;3.60;;;;;;;;;;5060353;28;20396;-81
2020/12/07 03:52:58;;;;;;;6.78;3.63;;;;;;;;;;5063792;28;20032;-79
2020/12/07 03:55:43;;;;;;;3.97;2.95;;;;;;;;;;5056000;28;20027;-80
2020/12/07 03:58:29;;;;;;;6.28;3.63;;;;;;;;;;5057060;28;20067;-80
2020/12/07 04:01:14;;;;;;;6.82;3.50;;;;;;;;;;5059266;28;20065;-80
2020/12/07 04:04:03;;;;;;;8.35;4.20;;;;;;;;;;5055782;28;20025;-80
2020/12/07 04:06:50;;;;;;;6.43;4.03;;;;;;;;;;5060344;28;20035;-82
2020/12/07 04:09:35;;;;;;;6.35;4.65;;;;;;;;;;5057981;28;20024;-81
2020/12/07 04:12:21;;;;;;;5.72;3.53;;;;;;;;;;5058708;28;20040;-80
2020/12/07 04:15:06;;;;;;;6.93;4.40;;;;;;;;;;5051501;28;20025;-81
2020/12/07 04:17:51;;;;;;;4.85;3.30;;;;;;;;;;5054680;28;20119;-80
2020/12/07 04:20:36;;;;;;;5.57;3.70;;;;;;;;;;5054276;28;20021;-80
2020/12/07 04:23:22;;;;;;;7.53;4.60;;;;;;;;;;5061623;28;20443;-81
2020/12/07 04:26:07;;;;;;;7.85;4.65;;;;;;;;;;5054064;28;20017;-80
2020/12/07 04:28:52;;;;;;;7.82;4.93;;;;;;;;;;5057333;28;20129;-79
2020/12/07 04:31:37;;;;;;;6.05;4.45;;;;;;;;;;5055746;28;20021;-81
2020/12/07 04:34:22;;;;;;;6.45;4.20;;;;;;;;;;5052931;28;20132;-81
2020/12/07 04:37:08;;;;;;;6.50;4.45;;;;;;;;;;5060798;28;20681;-80
2020/12/07 04:39:53;;;;;;;5.75;4.10;;;;;;;;;;5060999;28;20041;-79
2020/12/07 04:42:39;;;;;;;5.80;3.78;;;;;;;;;;5059142;28;20028;-82
2020/12/07 04:45:24;;;;;;;6.88;4.20;;;;;;;;;;5060318;28;20029;-81
2020/12/07 04:48:11;;;;;;;7.18;4.40;;;;;;;;;;5055806;28;20483;-81
2020/12/07 04:50:56;;;;;;;7.57;4.90;;;;;;;;;;5060569;28;20434;-81
2020/12/07 04:53:41;;;;;;;11.05;4.43;;;;;;;;;;5058894;28;20021;-81
2020/12/07 04:56:27;;;;;;;9.32;4.60;;;;;;;;;;5056956;28;20514;-79
2020/12/07 04:59:12;;;;;;;8.93;4.88;;;;;;;;;;5052300;28;20547;-81
2020/12/07 05:01:57;;;;;;;10.60;4.80;;;;;;;;;;5057752;28;20209;-81
2020/12/07 05:04:43;;;;;;;9.75;4.80;;;;;;;;;;5056198;28;20035;-80
2020/12/07 05:07:28;;;;;;;9.88;4.68;;;;;;;;;;5052250;28;20415;-81
2020/12/07 05:10:16;;;;;;;6.47;4.05;;;;;;;;;;5043618;28;20131;-81
2020/12/07 05:13:15;;;;;;;8.23;4.32;;;;;;;;;;5055031;28;20540;-79
2020/12/07 05:16:00;;;;;;;9.55;4.68;;;;;;;;;;5055429;28;20035;-79
2020/12/07 05:18:45;;;;;;;9.85;5.45;;;;;;;;;;5048869;28;20027;-79
2020/12/07 05:21:31;;;;;;;8.50;4.25;;;;;;;;;;5059139;28;20412;-79
2020/12/07 05:24:16;;;;;;;9.05;5.18;;;;;;;;;;5061118;28;20028;-79
2020/12/07 05:27:01;;;;;;;9.90;5.15;;;;;;;;;;5051581;28;20425;-79
2020/12/07 05:32:55;;;;;;;12.45;5.07;;;;;;;;;;5041551;28;20051;-79
2020/12/07 05:35:44;;;;;;;8.25;4.38;;;;;;;;;;5059156;28;20028;-80
2020/12/07 05:38:33;;;;;;;9.77;5.68;;;;;;;;;;5056930;28;20108;-79
2020/12/07 05:41:22;;;;;;;12.93;5.28;;;;;;;;;;5053453;28;20024;-79
2020/12/07 05:44:07;;;;;;;8.77;5.80;;;;;;;;;;5048731;28;20039;-79
2020/12/07 05:46:54;;;;;;;8.43;4.53;;;;;;;;;;5055789;28;20028;-79
2020/12/07 05:49:39;;;;;;;8.75;5.75;;;;;;;;;;5051048;28;20032;-79
2020/12/07 05:52:39;;;;;;;12.40;5.35;;;;;;;;;;5052433;28;20024;-78
2020/12/07 05:55:25;;;;;;;12.40;5.72;;;;;;;;;;5051182;28;20037;-81
2020/12/07 05:58:11;;;;;;;9.65;5.28;;;;;;;;;;5057298;28;20020;-81
2020/12/07 06:00:58;;;;;;;14.20;6.78;;;;;;;;;;5057757;28;20107;-80
2020/12/07 06:03:43;;;;;;;10.82;5.70;;;;;;;;;;5053070;28;20509;-81
2020/12/07 06:06:35;;;;;;;10.07;5.45;;;;;;;;;;5054493;28;20067;-81
2020/12/07 06:09:21;;;;;;;11.02;5.18;;;;;;;;;;5059770;28;20017;-81
2020/12/07 06:12:13;;;;;;;11.27;6.40;;;;;;;;;;5057005;28;20436;-81
2020/12/07 06:14:58;;;;;;;10.18;6.38;;;;;;;;;;5052313;28;20529;-81
2020/12/07 06:17:46;;;;;;;10.93;5.80;;;;;;;;;;5054013;28;20047;-81
2020/12/07 06:20:32;;;;;;;13.20;6.93;;;;;;;;;;5051844;28;20029;-80
2020/12/07 06:23:18;;;;;;;12.88;7.28;;;;;;;;;;5059276;28;20035;-81
2020/12/07 06:26:04;;;;;;;12.23;6.72;;;;;;;;;;5055532;28;20028;-82
2020/12/07 06:28:50;;;;;;;10.77;6.88;;;;;;;;;;5052249;28;20013;-81
2020/12/07 06:31:38;;;;;;;10.15;6.15;;;;;;;;;;5056299;28;20020;-81
2020/12/07 06:34:31;;;;;;;11.27;6.10;;;;;;;;;;5055284;28;20033;-80
2020/12/07 06:37:16;;;;;;;9.68;5.80;;;;;;;;;;5048913;28;20025;-80
2020/12/07 06:40:02;;;;;;;11.77;8.10;;;;;;;;;;5057716;28;20483;-81
2020/12/07 06:42:48;;;;;;;12.75;7.28;;;;;;;;;;5060413;28;20078;-79
2020/12/07 06:45:33;;;;;;;13.15;7.13;;;;;;;;;;5056731;28;20077;-80
2020/12/07 06:48:22;;;;;;;11.75;6.32;;;;;;;;;;5052154;28;20086;-81
2020/12/07 06:51:07;;;;;;;17.15;6.90;;;;;;;;;;5053485;28;20567;-79
2020/12/07 06:53:52;;;;;;;13.50;8.38;;;;;;;;;;5058737;28;20035;-80
2020/12/07 06:56:38;;;;;;;51.53;36.13;;;;;;;;;;5056193;28;20062;-81
2020/12/07 06:59:25;;;;;;;17.00;11.48;;;;;;;;;;5051034;28;20028;-81
2020/12/07 07:02:11;;;;;;;12.75;7.40;;;;;;;;;;5048757;28;20021;-83
2020/12/07 07:04:58;;;;;;;10.27;5.95;;;;;;;;;;5051474;28;20020;-81
2020/12/07 07:07:43;;;;;;;9.32;6.05;;;;;;;;;;5047335;28;20082;-81
2020/12/07 07:10:29;;;;;;;10.02;6.15;;;;;;;;;;5051892;28;20059;-85
2020/12/07 07:13:14;;;;;;;12.00;7.15;;;;;;;;;;5057380;28;20055;-81
2020/12/07 07:16:00;;;;;;;28.52;21.55;;;;;;;;;;5053620;28;20021;-80
2020/12/07 07:18:45;;;;;;;42.55;28.73;;;;;;;;;;5051028;28;20036;-80
2020/12/07 07:21:32;;;;;;;15.73;9.75;;;;;;;;;;5051026;28;20029;-81
2020/12/07 07:24:18;;;;;;;14.10;8.57;;;;;;;;;;5060485;28;20115;-83
2020/12/07 07:27:56;;;;;;;8.13;5.75;;;;;;;;;;5040064;28;20025;-83
2020/12/07 07:30:09;;;;;;;15.23;8.40;;;;;;;;;;5058439;28;20016;-82
2020/12/07 07:32:54;;;;;;;16.10;7.85;;;;;;;;;;5054274;28;20040;-80
2020/12/07 07:35:40;;;;;;;11.68;7.38;;;;;;;;;;5060830;28;20056;-81
2020/12/07 07:38:34;;;;;;;11.00;7.22;;;;;;;;;;5056450;28;20081;-85
2020/12/07 07:41:26;;;;;;;11.55;7.20;;;;;;;;;;5057053;28;20032;-81
2020/12/07 07:44:14;;;;;;;11.50;7.05;;;;;;;;;;5060547;28;20554;-81
2020/12/07 07:47:02;;;;;;;13.00;7.05;;;;;;;;;;5067559;28;20367;-81
2020/12/07 08:03:22;;;;;;;13.95;8.57;;;;;;;;;;5060979;28;20035;-83
2020/12/07 08:17:46;;;;;;;17.33;9.68;;;;;;;;;;5063913;28;20028;-82
2020/12/07 08:20:35;;;;;;;14.20;8.70;;;;;;;;;;5059864;28;20052;-81
2020/12/07 08:23:30;;;;;;;15.63;10.75;;;;;;;;;;5060824;28;20056;-81
2020/12/07 08:26:19;;;;;;;13.55;9.50;;;;;;;;;;5062126;28;20017;-81
2020/12/07 08:29:08;;;;;;;14.38;9.27;;;;;;;;;;5063760;28;20639;-81
2020/12/07 08:31:53;;;;;;;15.93;9.43;;;;;;;;;;5062938;28;20580;-82
2020/12/07 08:34:38;;;;;;;15.13;9.10;;;;;;;;;;5062311;28;20606;-82
2020/12/07 08:37:25;;;;;;;13.57;9.80;;;;;;;;;;5067720;28;20444;-81
2020/12/07 08:40:10;;;;;;;13.30;8.90;;;;;;;;;;5062253;28;20024;-81
2020/12/07 08:42:55;;;;;;;12.73;8.77;;;;;;;;;;5069091;28;20103;-82
2020/12/07 08:45:44;;;;;;;13.27;9.48;;;;;;;;;;5061342;28;20055;-81
2020/12/07 08:48:30;;;;;;;15.48;9.40;;;;;;;;;;5063679;28;20028;-82
2020/12/07 08:51:19;;;;;;;14.52;9.43;;;;;;;;;;5048862;28;20031;-81
2020/12/07 08:54:05;;;;;;;12.68;8.68;;;;;;;;;;5067584;28;20020;-82
2020/12/07 08:56:50;;;;;;;13.10;8.52;;;;;;;;;;5054073;28;20086;-81
2020/12/07 08:59:35;;;;;;;14.85;8.85;;;;;;;;;;5063792;28;20123;-81
2020/12/07 09:02:20;;;;;;;11.57;7.07;;;;;;;;;;5062719;28;20034;-84
2020/12/07 09:05:05;;;;;;;12.93;9.05;;;;;;;;;;5067712;28;20077;-80
2020/12/07 09:07:51;;;;;;;24.42;14.85;;;;;;;;;;5064170;28;20473;-84
2020/12/07 09:10:36;;;;;;;28.65;20.02;;;;;;;;;;5061052;28;20051;-81
2020/12/07 09:13:22;;;;;;;13.52;9.25;;;;;;;;;;5065325;28;20055;-81
2020/12/07 09:16:08;;;;;;;12.23;7.18;;;;;;;;;;5062750;28;20038;-81
2020/12/07 09:18:53;;;;;;;12.82;7.95;;;;;;;;;;5063837;28;20012;-81
2020/12/07 09:21:38;;;;;;;10.57;6.93;;;;;;;;;;5059195;28;20067;-81
2020/12/07 09:24:24;;;;;;;11.30;7.45;;;;;;;;;;5061076;28;20083;-84
2020/12/07 09:27:09;;;;;;;10.73;6.00;;;;;;;;;;5061167;28;20031;-82
2020/12/07 09:29:55;;;;;;;9.63;6.63;;;;;;;;;;5057190;28;20410;-83
2020/12/07 09:32:40;;;;;;;11.52;6.63;;;;;;;;;;5056394;28;20490;-83
2020/12/07 09:35:26;;;;;;;10.00;6.53;;;;;;;;;;5045041;28;20035;-83
2020/12/07 09:38:11;;;;;;;12.27;7.05;;;;;;;;;;5040664;28;20163;-82
2020/12/07 09:40:56;;;;;;;15.75;8.95;;;;;;;;;;5044381;28;20571;-80
2020/12/07 09:43:41;;;;;;;13.57;6.97;;;;;;;;;;5048923;28;20024;-81
2020/12/07 09:46:27;;;;;;;11.63;7.03;;;;;;;;;;5049620;28;20534;-84
2020/12/07 09:49:12;;;;;;;9.23;6.18;;;;;;;;;;5048556;28;20079;-83
2020/12/07 09:51:57;;;;;;;9.25;5.28;;;;;;;;;;5045737;28;20490;-83
2020/12/07 09:54:43;;;;;;;8.05;5.30;;;;;;;;;;5051206;28;20016;-84
2020/12/07 09:57:28;;;;;;;8.90;5.47;;;;;;;;;;5047292;28;20141;-81
2020/12/07 10:00:13;;;;;;;7.78;5.38;;;;;;;;;;5037410;28;20595;-84
2020/12/07 10:02:59;;;;;;;8.35;5.70;;;;;;;;;;5054125;28;20092;-82
2020/12/07 10:05:44;;;;;;;7.78;4.88;;;;;;;;;;5046025;28;20135;-80
2020/12/07 10:08:29;;;;;;;23.92;15.35;;;;;;;;;;5049555;28;20028;-81
2020/12/07 10:11:15;;;;;;;15.43;10.48;;;;;;;;;;5042617;28;20533;-82
2020/12/07 10:14:00;;;;;;;8.50;6.05;;;;;;;;;;5035555;28;20032;-81
2020/12/07 10:16:46;;;;;;;9.50;5.82;;;;;;;;;;5042051;28;20036;-82
2020/12/07 10:19:31;;;;;;;6.90;5.03;;;;;;;;;;5033343;28;20033;-82
2020/12/07 10:22:16;;;;;;;6.38;3.92;;;;;;;;;;5031305;28;20375;-81
2020/12/07 10:25:02;;;;;;;6.40;4.38;;;;;;;;;;5042326;28;20024;-81
2020/12/07 10:27:47;;;;;;;7.40;5.22;;;;;;;;;;5044457;28;20025;-81
2020/12/07 10:30:32;;;;;;;5.90;3.95;;;;;;;;;;5037621;28;20024;-82
2020/12/07 10:33:17;;;;;;;4.45;3.35;;;;;;;;;;5052223;28;20700;-81
2020/12/07 10:36:03;;;;;;;4.93;3.50;;;;;;;;;;5064907;28;20352;-82
2020/12/07 10:38:51;;;;;;;4.97;3.88;;;;;;;;;;5065789;28;20051;-81
2020/12/07 10:41:37;;;;;;;7.90;4.25;;;;;;;;;;5066894;28;20497;-82
2020/12/07 10:44:22;;;;;;;7.55;3.38;;;;;;;;;;5058158;28;20027;-81
2020/12/07 10:47:07;;;;;;;7.72;3.58;;;;;;;;;;5065540;28;20027;-81
2020/12/07 10:49:52;;;;;;;6.20;3.92;;;;;;;;;;5064479;28;20077;-80
2020/12/07 10:52:38;;;;;;;7.90;4.43;;;;;;;;;;5063051;28;20026;-80
2020/12/07 10:55:23;;;;;;;5.57;3.58;;;;;;;;;;5065295;28;20024;-79
2020/12/07 10:58:08;;;;;;;6.85;4.18;;;;;;;;;;5066592;28;20114;-80
2020/12/07 11:00:54;;;;;;;5.57;3.80;;;;;;;;;;5072119;28;20111;-79
2020/12/07 11:03:40;;;;;;;7.53;4.57;;;;;;;;;;5063672;28;20021;-79
2020/12/07 11:06:34;;;;;;;29.98;20.08;;;;;;;;;;5068873;28;20107;-80
2020/12/07 11:09:23;;;;;;;6.32;4.20;;;;;;;;;;5070937;28;20025;-80
2020/12/07 11:12:15;;;;;;;6.20;4.00;;;;;;;;;;5061496;28;20024;-82
2020/12/07 11:15:00;;;;;;;5.72;4.00;;;;;;;;;;5070323;28;20349;-79
2020/12/07 11:18:12;;;;;;;8.35;7.53;;;;;;;;;;5062493;28;20099;-79
2020/12/07 11:20:57;;;;;;;5.20;3.60;;;;;;;;;;5041855;28;20036;-79
2020/12/07 11:23:44;;;;;;;7.63;6.88;;;;;;;;;;5070859;28;20039;-79
2020/12/07 11:26:29;;;;;;;42.35;40.15;;;;;;;;;;5063154;28;20031;-80
2020/12/07 11:29:14;;;;;;;31.35;29.75;;;;;;;;;;5067819;28;20065;-79
2020/12/07 11:32:00;;;;;;;15.50;14.48;;;;;;;;;;5068994;28;20024;-80
2020/12/07 11:34:45;;;;;;;1999.90;999.90;;;;;;;;;;5058928;28;20033;-79
2020/12/07 11:37:32;;;;;;;1999.90;999.90;;;;;;;;;;5054493;28;20028;-80
2020/12/07 11:40:30;;;;;;;1999.90;999.90;;;;;;;;;;5055310;28;20017;-79
2020/12/07 11:43:31;;;;;;;1999.90;999.90;;;;;;;;;;5051201;28;20020;-78
2020/12/07 11:46:18;;;;;;;1999.90;999.90;;;;;;;;;;5056604;28;20020;-80
2020/12/07 11:49:04;;;;;;;32.35;30.52;;;;;;;;;;5057579;28;20024;-80
2020/12/07 11:51:49;;;;;;;17.52;16.40;;;;;;;;;;5056691;28;20025;-79
2020/12/07 11:54:37;;;;;;;5.78;4.13;;;;;;;;;;5058858;28;20020;-79
2020/12/07 11:57:23;;;;;;;15.15;10.43;;;;;;;;;;5059656;28;20374;-79
2020/12/07 12:00:08;;;;;;;17.05;12.70;;;;;;;;;;5065012;28;20028;-79
2020/12/07 12:02:53;;;;;;;4.78;2.78;;;;;;;;;;5057920;28;20040;-78
2020/12/07 12:05:38;;;;;;;3.83;2.28;;;;;;;;;;5063004;28;20024;-80
2020/12/07 12:08:25;;;;;;;5.90;2.65;;;;;;;;;;5058083;28;20044;-80
2020/12/07 12:11:10;;;;;;;2.92;2.13;;;;;;;;;;5068376;28;20028;-78
2020/12/07 12:13:55;;;;;;;3.15;2.50;;;;;;;;;;5058188;28;20031;-79
2020/12/07 12:16:40;;;;;;;3.92;2.63;;;;;;;;;;5064917;28;20025;-79
2020/12/07 12:19:26;;;;;;;2.60;1.90;;;;;;;;;;5061402;28;20085;-78
2020/12/07 12:22:11;;;;;;;3.00;1.98;;;;;;;;;;5065229;28;20399;-78
2020/12/07 12:24:56;;;;;;;3.75;2.47;;;;;;;;;;5059548;28;20017;-78
2020/12/07 12:27:42;;;;;;;3.97;2.45;;;;;;;;;;5066665;28;20055;-79
2020/12/07 12:30:27;;;;;;;4.95;2.55;;;;;;;;;;5067690;28;20036;-78
2020/12/07 12:33:12;;;;;;;3.25;2.75;;;;;;;;;;5069414;28;20047;-78
2020/12/07 12:35:58;;;;;;;3.40;2.17;;;;;;;;;;5065723;28;20034;-78
2020/12/07 12:38:43;;;;;;;6.25;2.75;;;;;;;;;;5064487;28;20436;-78
2020/12/07 12:41:29;;;;;;;3.83;2.60;;;;;;;;;;5059519;28;20327;-78
2020/12/07 12:44:14;;;;;;;4.53;2.45;;;;;;;;;;5059660;28;20076;-78
2020/12/07 12:47:02;;;;;;;5.32;3.50;;;;;;;;;;5070072;28;20020;-79
2020/12/07 12:49:47;;;;;;;5.75;3.53;;;;;;;;;;5051651;28;20471;-79
2020/12/07 12:52:33;;;;;;;5.32;3.38;;;;;;;;;;5071343;28;20028;-78
2020/12/07 12:55:18;;;;;;;5.25;3.22;;;;;;;;;;5060732;28;20024;-79
2020/12/07 12:58:03;;;;;;;7.43;3.95;;;;;;;;;;5065925;28;20032;-79
2020/12/07 13:00:48;;;;;;;5.15;3.50;;;;;;;;;;5059947;28;20059;-79
2020/12/07 13:03:34;;;;;;;9.68;4.63;;;;;;;;;;5064493;28;20070;-80
2020/12/07 13:06:20;;;;;;;5.82;3.50;;;;;;;;;;5058291;28;20078;-78
2020/12/07 13:09:05;;;;;;;5.97;3.47;;;;;;;;;;5055253;28;20399;-78
2020/12/07 13:11:50;;;;;;;5.88;3.63;;;;;;;;;;5055637;28;20031;-78
2020/12/07 13:14:35;;;;;;;5.45;3.70;;;;;;;;;;5068507;28;20020;-78
2020/12/07 13:17:27;;;;;;;6.40;3.60;;;;;;;;;;5055057;28;20044;-77
2020/12/07 13:20:13;;;;;;;9.35;4.50;;;;;;;;;;5058821;28;20064;-78
2020/12/07 13:23:06;;;;;;;6.30;3.70;;;;;;;;;;5063610;28;20509;-79
2020/12/07 13:26:01;;;;;;;7.05;3.75;;;;;;;;;;5056954;28;22217;-79
2020/12/07 13:28:46;;;;;;;7.88;4.20;;;;;;;;;;5057108;28;20033;-79
2020/12/07 13:31:41;;;;;;;6.10;3.63;;;;;;;;;;5061058;28;20050;-78
2020/12/07 13:34:26;;;;;;;6.95;3.83;;;;;;;;;;5062277;28;20056;-80
2020/12/07 13:37:11;;;;;;;6.20;3.20;;;;;;;;;;5058105;28;20491;-78
2020/12/07 13:39:57;;;;;;;5.57;3.65;;;;;;;;;;5060102;28;20665;-78
2020/12/07 13:42:44;;;;;;;4.50;3.22;;;;;;;;;;5051558;28;20024;-79
2020/12/07 13:45:30;;;;;;;4.53;3.13;;;;;;;;;;5059650;28;20027;-80
2020/12/07 13:48:15;;;;;;;6.25;3.75;;;;;;;;;;5057356;28;20016;-80
2020/12/07 13:51:00;;;;;;;6.90;3.85;;;;;;;;;;5061947;28;20059;-80
2020/12/07 13:53:47;;;;;;;5.32;3.30;;;;;;;;;;5052173;28;20531;-80
2020/12/07 13:56:32;;;;;;;31.10;17.90;;;;;;;;;;5056753;28;20458;-80
2020/12/07 13:59:17;;;;;;;7.35;4.25;;;;;;;;;;5057085;28;20046;-81
2020/12/07 14:02:02;;;;;;;5.80;3.38;;;;;;;;;;5058071;28;20024;-80
2020/12/07 14:05:06;;;;;;;6.10;3.70;;;;;;;;;;5054918;28;20062;-82
2020/12/07 14:07:51;;;;;;;5.32;3.50;;;;;;;;;;5058793;28;20097;-82
2020/12/07 14:10:39;;;;;;;4.22;2.88;;;;;;;;;;5059448;28;20088;-81
2020/12/07 14:13:24;;;;;;;6.82;3.63;;;;;;;;;;5054120;28;20145;-81
2020/12/07 14:16:12;;;;;;;4.57;3.10;;;;;;;;;;5059215;28;20029;-81
2020/12/07 14:31:17;;;;;;;7.35;4.00;;;;;;;;;;5059011;28;20032;-80
2020/12/07 14:40:09;;;;;;;11.18;6.00;;;;;;;;;;5057256;28;20023;-80
2020/12/07 14:42:54;;;;;;;5.13;2.78;;;;;;;;;;5057003;28;20025;-81
2020/12/07 14:45:58;;;;;;;4.15;2.63;;;;;;;;;;5056186;28;20112;-80
2020/12/07 14:48:45;;;;;;;3.50;2.22;;;;;;;;;;5057304;28;20461;-78
2020/12/07 14:54:22;;;;;;;5.07;2.70;;;;;;;;;;5057807;28;21078;-80
2020/12/07 15:05:45;;;;;;;5.35;2.63;;;;;;;;;;5060445;28;20027;-81
2020/12/07 15:14:20;;;;;;;7.10;2.58;;;;;;;;;;5054133;28;20397;-81
2020/12/07 15:17:06;;;;;;;6.05;2.97;;;;;;;;;;5059173;28;20383;-81
2020/12/07 15:19:51;;;;;;;6.45;3.30;;;;;;;;;;5059098;28;20030;-81
2020/12/07 15:22:37;;;;;;;35.38;25.05;;;;;;;;;;5055274;28;20562;-81
2020/12/07 15:25:22;;;;;;;9.82;5.03;;;;;;;;;;5050146;28;20021;-81
2020/12/07 15:28:07;;;;;;;8.07;3.28;;;;;;;;;;5049572;28;20028;-81
2020/12/07 15:30:52;;;;;;;10.23;3.08;;;;;;;;;;5047953;28;20019;-81
2020/12/07 15:33:38;;;;;;;6.90;2.92;;;;;;;;;;5052695;28;20045;-80
2020/12/07 15:36:24;;;;;;;5.43;3.30;;;;;;;;;;5053656;28;20036;-81
2020/12/07 15:39:09;;;;;;;4.43;3.17;;;;;;;;;;5052784;28;20365;-82
2020/12/07 15:41:56;;;;;;;6.30;3.40;;;;;;;;;;5052136;28;20343;-81
2020/12/07 15:44:41;;;;;;;6.25;3.38;;;;;;;;;;5051544;28;20040;-80
2020/12/07 15:47:26;;;;;;;6.45;3.58;;;;;;;;;;5052692;28;20037;-79
2020/12/07 15:50:11;;;;;;;7.25;4.10;;;;;;;;;;5047396;28;20364;-79
2020/12/07 15:52:57;;;;;;;7.20;4.18;;;;;;;;;;5061304;28;20040;-79
2020/12/07 15:55:43;;;;;;;9.25;4.30;;;;;;;;;;5056269;28;20364;-80
2020/12/07 15:58:28;;;;;;;7.05;3.80;;;;;;;;;;5059905;28;20712;-81
2020/12/07 16:01:13;;;;;;;5.43;3.72;;;;;;;;;;5056459;28;20055;-80
2020/12/07 16:03:58;;;;;;;10.10;4.13;;;;;;;;;;5056712;28;20069;-80
2020/12/07 16:06:48;;;;;;;7.15;3.70;;;;;;;;;;5041210;28;20098;-80
2020/12/07 16:09:33;;;;;;;11.25;4.50;;;;;;;;;;5060243;28;20032;-80
2020/12/07 16:12:18;;;;;;;7.93;3.70;;;;;;;;;;5056248;28;20121;-82
2020/12/07 16:15:03;;;;;;;6.20;3.58;;;;;;;;;;5058354;28;20650;-80
2020/12/07 16:17:49;;;;;;;30.40;18.17;;;;;;;;;;5052294;28;20033;-81
2020/12/07 16:20:34;;;;;;;13.52;7.65;;;;;;;;;;5050739;28;20033;-81
2020/12/07 16:23:19;;;;;;;8.15;4.13;;;;;;;;;;5052077;28;20075;-80
2020/12/07 16:26:05;;;;;;;7.38;4.38;;;;;;;;;;5055562;28;20096;-79
2020/12/07 16:28:50;;;;;;;7.72;4.55;;;;;;;;;;5054092;28;20032;-80
2020/12/07 16:31:36;;;;;;;12.20;4.72;;;;;;;;;;5053099;28;20072;-81
2020/12/07 16:34:21;;;;;;;10.27;4.55;;;;;;;;;;5053331;28;20079;-81
2020/12/07 16:37:07;;;;;;;10.25;5.55;;;;;;;;;;5055002;28;20092;-82
2020/12/07 16:39:52;;;;;;;7.47;4.20;;;;;;;;;;5053994;28;20021;-80
2020/12/07 16:42:38;;;;;;;9.60;4.25;;;;;;;;;;5055540;28;20112;-79
2020/12/07 16:45:23;;;;;;;11.77;5.55;;;;;;;;;;5047858;28;20020;-82
2020/12/07 16:48:09;;;;;;;9.32;4.68;;;;;;;;;;5049895;28;20027;-81
2020/12/07 16:50:55;;;;;;;8.68;4.68;;;;;;;;;;5059831;28;20036;-80
2020/12/07 16:53:40;;;;;;;10.07;4.57;;;;;;;;;;5050915;28;20082;-81
2020/12/07 16:56:25;;;;;;;11.77;5.03;;;;;;;;;;5052886;28;20455;-80
2020/12/07 16:59:10;;;;;;;10.45;5.03;;;;;;;;;;5054478;28;20064;-82
2020/12/07 17:01:56;;;;;;;13.23;5.78;;;;;;;;;;5050396;28;20033;-81
2020/12/07 17:04:41;;;;;;;9.63;5.07;;;;;;;;;;5049716;28;20143;-81
2020/12/07 17:07:31;;;;;;;10.82;5.43;;;;;;;;;;5065240;28;20090;-81
2020/12/07 17:10:16;;;;;;;13.77;7.07;;;;;;;;;;5050905;28;20024;-81
2020/12/07 17:13:01;;;;;;;12.15;6.07;;;;;;;;;;5056458;28;20054;-80
2020/12/07 17:15:46;;;;;;;29.15;12.70;;;;;;;;;;5050625;28;20021;-79
2020/12/07 17:18:32;;;;;;;16.10;7.85;;;;;;;;;;5050710;28;20036;-80
2020/12/07 17:21:27;;;;;;;14.27;7.30;;;;;;;;;;5050903;28;20060;-79
2020/12/07 17:24:13;;;;;;;11.55;6.85;;;;;;;;;;5056066;28;20028;-81
2020/12/07 17:26:58;;;;;;;12.48;7.30;;;;;;;;;;5037062;28;20151;-80
2020/12/07 17:29:43;;;;;;;12.93;6.53;;;;;;;;;;5052937;28;20435;-79
2020/12/07 17:32:32;;;;;;;50.70;33.75;;;;;;;;;;5038252;28;20053;-79